Time;durP1;ratioP1;P1;durP2;ratioP2;P2;SDS_P1;SDS_P2;PMS_P1;PMS_P2;Temp;Humidity;BMP_temperature;BMP_pressure;BME280_temperature;BME280_humidity;BME280_pressure;Samples;Min_cycle;Max_cycle;Signal;HPM_P1;HPM_P2
2022/12/01 00:00:04;;;;;;;39.73;18.23;;;5.80;99.90;;;;;;5012481;28;20258;-66
2022/12/01 00:02:31;;;;;;;36.17;18.97;;;5.80;99.90;;;;;;5031609;28;20204;-67
2022/12/01 00:04:57;;;;;;;42.50;20.57;;;5.80;99.90;;;;;;5034482;28;21201;-66
2022/12/01 00:07:26;;;;;;;41.57;18.67;;;5.70;99.90;;;;;;5035074;28;20211;-66
2022/12/01 00:12:42;;;;;;;39.57;18.87;;;5.80;99.90;;;;;;5020270;28;20223;-66
2022/12/01 00:15:09;;;;;;;37.77;18.23;;;5.80;99.90;;;;;;5013327;28;20278;-66
2022/12/01 00:17:36;;;;;;;40.73;18.87;;;5.80;99.90;;;;;;5023734;28;20201;-66
2022/12/01 00:20:04;;;;;;;41.53;18.80;;;5.80;99.90;;;;;;5038185;28;20205;-67
2022/12/01 00:22:32;;;;;;;38.27;20.00;;;5.80;99.90;;;;;;5022684;28;20205;-66
2022/12/01 00:24:59;;;;;;;40.73;18.87;;;5.80;99.90;;;;;;5036281;28;20217;-66
2022/12/01 00:27:26;;;;;;;39.60;18.73;;;5.80;99.90;;;;;;5037884;28;21136;-67
2022/12/01 00:29:52;;;;;;;42.13;19.23;;;5.80;99.90;;;;;;5001552;28;20220;-66
2022/12/01 00:32:19;;;;;;;37.53;18.47;;;5.80;99.90;;;;;;5027743;28;20208;-67
2022/12/01 00:34:46;;;;;;;41.13;19.57;;;5.80;99.90;;;;;;5026308;28;20220;-66
2022/12/01 00:37:13;;;;;;;36.47;18.20;;;5.80;99.90;;;;;;5023596;28;20203;-66
2022/12/01 00:39:41;;;;;;;47.67;19.47;;;5.80;99.90;;;;;;5035083;28;20205;-66
2022/12/01 00:42:08;;;;;;;38.73;18.57;;;5.80;99.90;;;;;;5040878;28;20952;-66
2022/12/01 00:44:35;;;;;;;34.17;16.90;;;5.80;99.90;;;;;;5020637;28;20616;-67
2022/12/01 00:47:01;;;;;;;39.07;18.77;;;5.80;99.90;;;;;;5020639;28;20218;-66
2022/12/01 00:49:28;;;;;;;43.13;19.07;;;5.80;99.90;;;;;;5026592;28;20214;-66
2022/12/01 00:51:55;;;;;;;40.60;18.00;;;5.80;99.90;;;;;;5020898;28;20221;-66
2022/12/01 00:54:22;;;;;;;39.20;18.60;;;5.80;99.90;;;;;;5022873;28;20743;-66
2022/12/01 00:56:50;;;;;;;40.80;17.97;;;5.80;99.90;;;;;;5028630;28;20196;-66
2022/12/01 00:59:17;;;;;;;44.83;18.97;;;5.80;99.90;;;;;;5033238;28;20215;-66
2022/12/01 01:01:43;;;;;;;39.83;17.90;;;5.90;99.90;;;;;;4991782;28;22390;-66
2022/12/01 01:04:10;;;;;;;51.53;18.43;;;5.90;99.90;;;;;;5033092;28;20586;-66
2022/12/01 01:06:37;;;;;;;43.20;18.47;;;5.80;99.90;;;;;;5019458;28;21060;-66
2022/12/01 01:09:04;;;;;;;43.27;19.33;;;5.80;99.90;;;;;;5021308;28;20204;-66
2022/12/01 01:11:31;;;;;;;45.17;19.37;;;5.80;99.90;;;;;;5033798;28;20194;-66
2022/12/01 01:14:00;;;;;;;40.73;18.10;;;5.80;99.90;;;;;;5030615;28;20209;-66
2022/12/01 01:16:27;;;;;;;38.40;17.80;;;5.80;99.90;;;;;;5017857;28;20228;-66
2022/12/01 01:18:54;;;;;;;46.27;19.17;;;5.80;99.90;;;;;;5029501;28;20209;-66
2022/12/01 01:21:22;;;;;;;47.23;19.57;;;5.80;99.90;;;;;;5045960;28;20206;-66
2022/12/01 01:23:49;;;;;;;40.40;18.50;;;5.80;99.90;;;;;;5037180;28;20220;-66
2022/12/01 01:26:18;;;;;;;43.43;17.83;;;5.80;99.90;;;;;;5028680;28;21516;-66
2022/12/01 01:28:45;;;;;;;43.00;19.30;;;5.90;99.90;;;;;;5025360;28;20199;-66
2022/12/01 01:31:15;;;;;;;40.73;18.77;;;5.90;99.90;;;;;;5039681;28;20195;-66
2022/12/01 01:33:42;;;;;;;45.13;18.47;;;5.80;99.90;;;;;;5000912;28;20856;-66
2022/12/01 01:36:10;;;;;;;41.53;18.10;;;5.90;99.90;;;;;;5033530;28;21596;-66
2022/12/01 01:38:37;;;;;;;44.20;19.37;;;5.90;99.90;;;;;;5025735;28;20210;-66
2022/12/01 01:41:05;;;;;;;46.40;19.37;;;5.90;99.90;;;;;;5028671;28;20564;-66
2022/12/01 01:43:46;;;;;;;45.20;19.37;;;5.80;99.90;;;;;;5011046;28;20216;-66
2022/12/01 01:46:16;;;;;;;49.57;19.00;;;5.80;99.90;;;;;;5039461;28;20208;-65
2022/12/01 01:48:47;;;;;;;43.80;18.17;;;5.80;99.90;;;;;;5005834;28;20964;-66
2022/12/01 01:51:17;;;;;;;44.93;19.43;;;5.80;99.90;;;;;;5024764;28;20771;-66
2022/12/01 01:53:46;;;;;;;40.03;18.47;;;5.90;99.90;;;;;;5014426;28;20571;-66
2022/12/01 01:56:13;;;;;;;37.50;17.33;;;5.80;99.90;;;;;;5031725;28;20227;-67
2022/12/01 01:58:41;;;;;;;49.23;18.87;;;5.90;99.90;;;;;;5023163;28;20206;-66
2022/12/01 02:01:08;;;;;;;43.37;19.10;;;5.90;99.90;;;;;;5027969;28;20231;-66
2022/12/01 02:03:38;;;;;;;46.30;18.40;;;5.90;99.90;;;;;;5028998;28;20231;-67
2022/12/01 02:06:09;;;;;;;45.23;18.73;;;5.90;99.90;;;;;;5017369;28;20240;-66
2022/12/01 02:08:37;;;;;;;44.30;19.20;;;5.90;99.90;;;;;;5014637;28;20207;-66
2022/12/01 02:11:47;;;;;;;52.70;19.90;;;5.90;99.90;;;;;;5031969;28;20395;-66
2022/12/01 02:14:27;;;;;;;37.40;16.77;;;5.90;99.90;;;;;;5023478;28;20197;-66
2022/12/01 02:17:02;;;;;;;44.97;18.20;;;5.90;99.90;;;;;;5040228;28;20220;-66
2022/12/01 02:19:53;;;;;;;40.17;17.03;;;5.90;99.90;;;;;;5011230;28;20200;-66
2022/12/01 02:22:30;;;;;;;48.40;18.33;;;5.90;99.90;;;;;;5008423;28;20223;-67
2022/12/01 02:25:19;;;;;;;52.77;18.23;;;5.90;99.90;;;;;;5021315;28;20202;-66
2022/12/01 02:28:05;;;;;;;37.73;19.17;;;5.90;99.90;;;;;;5022379;28;20290;-66
2022/12/01 02:30:40;;;;;;;46.13;18.67;;;5.90;99.90;;;;;;5017924;28;20328;-66
2022/12/01 02:33:12;;;;;;;55.83;19.17;;;5.90;99.90;;;;;;5031545;28;20215;-66
2022/12/01 02:35:48;;;;;;;53.00;18.07;;;5.90;99.90;;;;;;5013097;28;20228;-65
2022/12/01 02:38:25;;;;;;;49.83;18.10;;;5.90;99.90;;;;;;5006758;28;20680;-66
2022/12/01 02:40:56;;;;;;;43.43;18.33;;;5.80;99.90;;;;;;5022505;28;20207;-66
2022/12/01 02:43:29;;;;;;;47.63;18.93;;;5.80;99.90;;;;;;5032039;28;20211;-66
2022/12/01 02:46:01;;;;;;;44.87;18.00;;;5.80;99.90;;;;;;5027714;28;20213;-65
2022/12/01 02:48:30;;;;;;;51.33;19.13;;;5.80;99.90;;;;;;5035348;28;20203;-66
2022/12/01 02:51:01;;;;;;;46.60;18.93;;;5.90;99.90;;;;;;5031700;28;20204;-65
2022/12/01 02:53:28;;;;;;;48.47;18.17;;;5.90;99.90;;;;;;5009712;28;20201;-66
2022/12/01 02:55:57;;;;;;;56.13;19.70;;;5.80;99.90;;;;;;5027182;28;20294;-66
2022/12/01 02:58:24;;;;;;;52.17;17.50;;;5.60;99.90;;;;;;5013648;28;20201;-65
2022/12/01 03:01:17;;;;;;;48.93;19.40;;;5.90;99.90;;;;;;5039849;28;20220;-65
2022/12/01 03:04:02;;;;;;;50.77;18.80;;;5.90;99.90;;;;;;5035833;28;20638;-65
2022/12/01 03:06:48;;;;;;;45.87;18.33;;;5.90;99.90;;;;;;5044174;28;20199;-66
2022/12/01 03:09:27;;;;;;;47.93;17.13;;;5.90;99.90;;;;;;4998090;28;21120;-66
2022/12/01 03:12:02;;;;;;;52.53;18.47;;;5.90;99.90;;;;;;5044230;28;20208;-65
2022/12/01 03:14:37;;;;;;;42.87;16.90;;;6.00;99.90;;;;;;5027144;28;20209;-65
2022/12/01 03:17:08;;;;;;;42.87;17.10;;;5.90;99.90;;;;;;5019518;28;21402;-66
2022/12/01 03:19:41;;;;;;;46.53;17.30;;;5.90;99.90;;;;;;5043280;28;20211;-66
2022/12/01 03:22:13;;;;;;;49.70;17.53;;;6.00;99.90;;;;;;4998880;28;20208;-66
2022/12/01 03:24:45;;;;;;;37.53;15.93;;;6.00;99.90;;;;;;5014517;28;20213;-66
2022/12/01 03:27:15;;;;;;;45.03;15.70;;;6.00;99.90;;;;;;5040475;28;20195;-66
2022/12/01 03:29:48;;;;;;;38.20;16.67;;;6.00;99.90;;;;;;5032526;28;20202;-66
2022/12/01 03:32:22;;;;;;;43.57;16.13;;;6.00;99.90;;;;;;5024176;28;20196;-66
2022/12/01 03:34:53;;;;;;;33.57;14.90;;;6.00;99.90;;;;;;5032848;28;20201;-65
2022/12/01 03:37:25;;;;;;;41.07;17.17;;;6.00;99.90;;;;;;5032733;28;20204;-66
2022/12/01 03:39:56;;;;;;;44.57;16.07;;;6.00;99.90;;;;;;5015325;28;20499;-65
2022/12/01 03:42:27;;;;;;;41.17;15.73;;;6.00;99.90;;;;;;5026152;28;20208;-66
2022/12/01 03:44:57;;;;;;;40.40;16.50;;;6.00;99.90;;;;;;5048013;28;20195;-65
2022/12/01 03:47:30;;;;;;;38.53;15.00;;;6.00;99.90;;;;;;5026794;28;20552;-65
2022/12/01 03:49:59;;;;;;;43.13;17.23;;;6.00;99.90;;;;;;5028153;28;20204;-65
2022/12/01 03:52:38;;;;;;;41.13;17.20;;;5.90;99.90;;;;;;5040213;28;20232;-65
2022/12/01 03:55:11;;;;;;;40.27;17.43;;;6.00;99.90;;;;;;5013822;28;20223;-65
2022/12/01 03:57:44;;;;;;;43.83;15.73;;;5.90;99.90;;;;;;5018495;28;20203;-65
2022/12/01 04:00:14;;;;;;;49.73;16.73;;;5.90;99.90;;;;;;5027997;28;20201;-65
2022/12/01 04:02:43;;;;;;;46.00;16.77;;;5.90;99.90;;;;;;5021106;28;20204;-65
2022/12/01 04:05:11;;;;;;;44.17;17.17;;;6.00;99.90;;;;;;5034014;28;20800;-66
2022/12/01 04:07:38;;;;;;;56.53;19.20;;;6.30;99.90;;;;;;5038522;28;20189;-66
2022/12/01 04:10:06;;;;;;;62.03;20.17;;;6.00;99.90;;;;;;5012313;28;20208;-65
2022/12/01 04:12:32;;;;;;;63.33;21.53;;;6.00;99.90;;;;;;5033535;28;20624;-65
2022/12/01 04:15:01;;;;;;;55.50;21.83;;;6.00;99.90;;;;;;5039586;28;20215;-65
2022/12/01 04:17:28;;;;;;;57.53;21.37;;;5.90;99.90;;;;;;5014572;28;20206;-66
2022/12/01 04:19:57;;;;;;;60.43;22.40;;;6.00;99.90;;;;;;5026630;28;20204;-65
2022/12/01 04:22:24;;;;;;;56.60;21.33;;;5.90;99.90;;;;;;5021653;28;20890;-65
2022/12/01 04:24:51;;;;;;;57.50;23.00;;;6.00;99.90;;;;;;5038871;28;20545;-65
2022/12/01 04:27:18;;;;;;;50.17;20.87;;;6.00;99.90;;;;;;5010861;28;20229;-66
2022/12/01 04:29:44;;;;;;;61.93;22.43;;;6.00;99.90;;;;;;5036966;28;20208;-66
2022/12/01 04:32:12;;;;;;;53.37;21.17;;;6.00;99.90;;;;;;5030554;28;20208;-66
2022/12/01 04:34:39;;;;;;;66.83;23.87;;;5.90;99.90;;;;;;5035034;28;20203;-66
2022/12/01 04:37:08;;;;;;;56.17;21.47;;;6.00;99.90;;;;;;5012866;28;20235;-66
2022/12/01 04:39:35;;;;;;;60.73;23.03;;;6.00;99.90;;;;;;5039261;28;20794;-65
2022/12/01 04:42:02;;;;;;;58.93;22.67;;;6.00;99.90;;;;;;5005388;28;20242;-66
2022/12/01 04:44:29;;;;;;;60.50;22.27;;;5.90;99.90;;;;;;5037321;28;20584;-66
2022/12/01 04:46:56;;;;;;;55.27;22.60;;;6.00;99.90;;;;;;5027921;28;20206;-66
2022/12/01 04:49:23;;;;;;;58.47;21.50;;;6.00;99.90;;;;;;5009426;28;20224;-66
2022/12/01 04:51:50;;;;;;;64.90;23.70;;;6.00;99.90;;;;;;4999869;28;20721;-67
2022/12/01 04:54:18;;;;;;;59.70;23.80;;;5.90;99.90;;;;;;5032602;28;20205;-67
2022/12/01 04:56:45;;;;;;;55.77;21.00;;;5.90;99.90;;;;;;4992044;28;20279;-67
2022/12/01 04:59:12;;;;;;;59.73;22.57;;;6.00;99.90;;;;;;5026447;28;20210;-67
2022/12/01 05:01:40;;;;;;;53.80;21.13;;;6.00;99.90;;;;;;5026309;28;20690;-67
2022/12/01 05:04:06;;;;;;;53.03;22.73;;;5.90;99.90;;;;;;5013325;28;20200;-68
2022/12/01 05:06:33;;;;;;;55.67;22.90;;;5.90;99.90;;;;;;5009776;28;20835;-67
2022/12/01 05:09:01;;;;;;;57.50;22.03;;;5.90;99.90;;;;;;5036361;28;20243;-67
2022/12/01 05:11:31;;;;;;;53.60;21.13;;;5.90;99.90;;;;;;5008908;28;20785;-67
2022/12/01 05:13:59;;;;;;;53.20;22.23;;;5.90;99.90;;;;;;5024871;28;20622;-67
2022/12/01 05:16:28;;;;;;;53.43;22.33;;;5.90;99.90;;;;;;5010092;28;20230;-67
2022/12/01 05:21:37;;;;;;;51.97;22.10;;;5.90;99.90;;;;;;5012319;28;20224;-67
2022/12/01 05:24:05;;;;;;;49.67;20.97;;;5.90;99.90;;;;;;5026240;28;20201;-66
2022/12/01 05:26:33;;;;;;;52.57;22.90;;;5.20;99.90;;;;;;5006183;28;20235;-67
2022/12/01 05:29:00;;;;;;;49.47;20.63;;;6.00;99.90;;;;;;5038404;28;20216;-66
2022/12/01 05:31:27;;;;;;;50.43;21.10;;;6.00;99.90;;;;;;5020027;28;20206;-66
2022/12/01 05:33:53;;;;;;;51.10;21.17;;;6.00;99.90;;;;;;5013599;28;20215;-66
2022/12/01 05:36:20;;;;;;;44.87;20.17;;;6.00;99.90;;;;;;5025627;28;20739;-66
2022/12/01 05:38:47;;;;;;;47.23;21.03;;;6.10;99.90;;;;;;5029580;28;20379;-66
2022/12/01 05:41:15;;;;;;;49.37;20.60;;;5.90;99.90;;;;;;5038875;28;20214;-67
2022/12/01 05:43:43;;;;;;;47.67;21.33;;;5.90;99.90;;;;;;5001475;28;20721;-67
2022/12/01 05:46:09;;;;;;;50.57;20.10;;;6.00;99.90;;;;;;5002759;22;20241;-67
2022/12/01 05:48:36;;;;;;;46.63;20.10;;;6.00;99.90;;;;;;4977211;28;20647;-67
2022/12/01 05:51:08;;;;;;;54.73;20.97;;;6.00;99.90;;;;;;4975989;28;20226;-66
2022/12/01 05:53:35;;;;;;;50.27;19.90;;;6.00;99.90;;;;;;4967887;28;20915;-66
2022/12/01 05:56:02;;;;;;;44.40;20.40;;;6.00;99.90;;;;;;4978455;28;20241;-66
2022/12/01 05:58:29;;;;;;;42.60;20.77;;;6.00;99.90;;;;;;4959310;28;20221;-67
2022/12/01 06:00:57;;;;;;;48.60;20.20;;;5.90;99.90;;;;;;4995523;28;20223;-67
2022/12/01 06:03:24;;;;;;;48.73;19.93;;;5.90;99.90;;;;;;4982170;28;20197;-67
2022/12/01 06:05:51;;;;;;;41.33;19.70;;;5.90;99.90;;;;;;4982711;28;20232;-66
2022/12/01 06:08:18;;;;;;;42.60;20.60;;;5.90;99.90;;;;;;4963306;28;20233;-67
2022/12/01 06:10:45;;;;;;;42.07;20.60;;;6.00;99.90;;;;;;4961555;28;20244;-66
2022/12/01 06:13:13;;;;;;;35.50;18.43;;;;;;;;;;4960980;28;20227;-67
2022/12/01 06:15:40;;;;;;;47.00;20.87;;;5.90;99.90;;;;;;4989064;28;20250;-66
2022/12/01 06:18:08;;;;;;;44.40;20.67;;;6.00;99.90;;;;;;4992189;28;20232;-66
2022/12/01 06:20:35;;;;;;;43.97;18.87;;;6.00;99.90;;;;;;4973574;28;20228;-67
2022/12/01 06:23:01;;;;;;;41.67;20.00;;;6.00;99.90;;;;;;4995098;28;20208;-66
2022/12/01 06:25:28;;;;;;;50.90;20.87;;;6.10;99.90;;;;;;4994432;28;20203;-67
2022/12/01 06:27:57;;;;;;;41.90;20.10;;;6.10;99.90;;;;;;5002879;28;20232;-67
2022/12/01 06:30:23;;;;;;;47.17;22.53;;;6.00;99.90;;;;;;4971994;28;20213;-66
2022/12/01 06:32:50;;;;;;;43.23;22.00;;;6.00;99.90;;;;;;5000879;28;20211;-67
2022/12/01 06:35:19;;;;;;;42.50;21.57;;;5.90;99.90;;;;;;4985116;28;20523;-66
2022/12/01 06:37:46;;;;;;;55.07;24.07;;;5.90;99.90;;;;;;5003096;28;20228;-66
2022/12/01 06:40:13;;;;;;;47.17;21.50;;;5.90;99.90;;;;;;4970989;28;20214;-67
2022/12/01 06:42:39;;;;;;;47.40;22.47;;;5.90;99.90;;;;;;5000797;28;20214;-67
2022/12/01 06:45:07;;;;;;;50.10;22.87;;;5.90;99.90;;;;;;4972185;28;20216;-67
2022/12/01 06:47:34;;;;;;;50.60;22.67;;;5.90;99.90;;;;;;4999399;28;20233;-66
2022/12/01 06:50:01;;;;;;;51.57;23.20;;;5.90;99.90;;;;;;5001085;28;20234;-66
2022/12/01 06:52:29;;;;;;;46.93;22.43;;;6.00;99.90;;;;;;4996261;28;20299;-67
2022/12/01 06:54:56;;;;;;;51.80;24.77;;;6.00;99.90;;;;;;4989565;28;20232;-67
2022/12/01 06:57:23;;;;;;;54.53;25.27;;;6.00;99.90;;;;;;4994777;28;20233;-66
2022/12/01 06:59:50;;;;;;;50.97;24.60;;;6.00;99.90;;;;;;4975493;28;20237;-67
2022/12/01 07:02:16;;;;;;;58.93;26.80;;;5.90;99.90;;;;;;5006815;28;20212;-66
2022/12/01 07:04:43;;;;;;;60.40;26.63;;;5.90;99.90;;;;;;5003103;28;20259;-67
2022/12/01 07:07:11;;;;;;;49.70;24.97;;;5.90;99.90;;;;;;4968120;28;20240;-66
2022/12/01 07:09:39;;;;;;;59.83;26.17;;;6.00;99.90;;;;;;4990515;28;20529;-67
2022/12/01 07:12:06;;;;;;;59.97;26.67;;;6.00;99.90;;;;;;4993477;28;20207;-66
2022/12/01 07:14:34;;;;;;;67.77;28.27;;;6.00;99.90;;;;;;4970966;28;20200;-67
2022/12/01 07:17:01;;;;;;;68.57;28.50;;;6.00;99.90;;;;;;5006842;28;20714;-67
2022/12/01 07:19:27;;;;;;;62.20;28.27;;;5.90;99.90;;;;;;5004472;28;20695;-66
2022/12/01 07:21:54;;;;;;;63.77;28.20;;;5.90;99.90;;;;;;4995080;28;20531;-66
2022/12/01 07:24:21;;;;;;;62.70;28.10;;;5.80;99.90;;;;;;5007136;28;20244;-67
2022/12/01 07:26:49;;;;;;;58.43;28.73;;;5.80;99.90;;;;;;4983257;28;20206;-66
2022/12/01 07:29:16;;;;;;;62.70;27.63;;;5.70;99.90;;;;;;5004306;28;20209;-67
2022/12/01 07:31:43;;;;;;;60.37;28.50;;;5.70;99.90;;;;;;4971621;28;20296;-66
2022/12/01 07:34:12;;;;;;;62.07;27.80;;;5.70;99.90;;;;;;5008210;28;20208;-66
2022/12/01 07:36:39;;;;;;;60.00;29.07;;;5.70;99.90;;;;;;5006176;28;21379;-67
2022/12/01 07:39:06;;;;;;;63.37;27.80;;;5.70;99.90;;;;;;4993949;28;20514;-66
2022/12/01 07:41:34;;;;;;;61.10;26.13;;;5.60;99.90;;;;;;4991995;28;20207;-67
2022/12/01 07:44:02;;;;;;;66.47;28.57;;;5.70;99.90;;;;;;4993356;28;21005;-67
2022/12/01 07:46:29;;;;;;;60.97;27.70;;;5.70;99.90;;;;;;4977731;28;20238;-67
2022/12/01 07:48:58;;;;;;;60.53;27.90;;;5.60;99.90;;;;;;5001470;28;20202;-67
2022/12/01 07:51:25;;;;;;;62.57;28.17;;;5.70;99.90;;;;;;5007535;28;20301;-67
2022/12/01 07:53:53;;;;;;;64.10;29.03;;;5.70;99.90;;;;;;4988781;28;20221;-66
2022/12/01 07:56:22;;;;;;;66.60;27.77;;;5.60;99.90;;;;;;5002583;28;20230;-66
2022/12/01 07:58:49;;;;;;;68.27;29.70;;;5.70;99.90;;;;;;4976462;28;20203;-67
2022/12/01 08:01:19;;;;;;;57.33;28.60;;;5.60;99.90;;;;;;4977228;28;20206;-66
2022/12/01 08:03:47;;;;;;;59.20;26.27;;;5.60;99.90;;;;;;5001310;28;20233;-66
2022/12/01 08:06:14;;;;;;;59.20;29.00;;;5.50;99.90;;;;;;5006225;28;20217;-66
2022/12/01 08:08:41;;;;;;;57.50;28.40;;;5.60;99.90;;;;;;4994075;28;20216;-66
2022/12/01 08:11:11;;;;;;;57.83;27.67;;;5.50;99.90;;;;;;4996931;28;20213;-66
2022/12/01 08:13:38;;;;;;;62.73;29.03;;;5.60;99.90;;;;;;4990654;28;20226;-67
2022/12/01 08:16:07;;;;;;;67.03;28.23;;;5.50;99.90;;;;;;4960463;28;21255;-67
2022/12/01 08:18:35;;;;;;;60.90;26.57;;;5.50;99.90;;;;;;5005451;28;20231;-67
2022/12/01 08:21:03;;;;;;;70.30;30.23;;;5.50;99.90;;;;;;5001228;28;20593;-66
2022/12/01 08:23:29;;;;;;;65.67;28.63;;;5.40;99.90;;;;;;4975325;28;21359;-66
2022/12/01 08:26:00;;;;;;;62.23;28.40;;;5.50;99.90;;;;;;5002922;28;20200;-66
2022/12/01 08:28:26;;;;;;;60.83;28.03;;;5.40;99.90;;;;;;4989469;28;20613;-67
2022/12/01 08:30:53;;;;;;;65.40;30.03;;;5.40;99.90;;;;;;4988152;28;20207;-67
2022/12/01 08:33:20;;;;;;;61.47;28.27;;;5.40;99.90;;;;;;4964233;28;20225;-66
2022/12/01 08:35:48;;;;;;;65.70;27.63;;;5.40;99.90;;;;;;5001418;28;20717;-67
2022/12/01 08:38:16;;;;;;;59.20;27.93;;;5.50;99.90;;;;;;4988096;28;20864;-67
2022/12/01 08:40:42;;;;;;;57.87;27.23;;;5.40;99.90;;;;;;4996263;28;20206;-66
2022/12/01 08:43:09;;;;;;;65.80;29.47;;;5.30;99.90;;;;;;4995470;28;20205;-66
2022/12/01 08:45:36;;;;;;;61.57;29.57;;;5.30;99.90;;;;;;4977359;28;20955;-66
2022/12/01 08:48:03;;;;;;;58.83;28.00;;;5.30;99.90;;;;;;4969301;28;20210;-66
2022/12/01 08:50:30;;;;;;;59.97;28.07;;;5.30;99.90;;;;;;4998889;28;20219;-67
2022/12/01 08:52:58;;;;;;;56.37;27.23;;;5.30;99.90;;;;;;5001113;28;20210;-66
2022/12/01 08:55:25;;;;;;;67.30;31.13;;;5.30;99.90;;;;;;4967135;28;20218;-67
2022/12/01 08:57:51;;;;;;;53.77;26.10;;;5.30;99.90;;;;;;4999770;28;20226;-66
2022/12/01 09:00:19;;;;;;;64.73;28.80;;;5.30;99.90;;;;;;4973954;28;20860;-67
2022/12/01 09:02:46;;;;;;;61.77;27.43;;;5.30;99.90;;;;;;4973767;28;20206;-66
2022/12/01 09:05:12;;;;;;;60.83;29.23;;;5.30;99.90;;;;;;5000660;28;20223;-66
2022/12/01 09:07:39;;;;;;;59.17;27.30;;;5.30;99.90;;;;;;5000066;28;20205;-66
2022/12/01 09:10:09;;;;;;;62.03;29.07;;;5.20;99.90;;;;;;4997780;28;20226;-66
2022/12/01 09:12:36;;;;;;;58.27;29.67;;;5.20;99.90;;;;;;4996025;28;20194;-66
2022/12/01 09:15:03;;;;;;;73.43;31.33;;;5.20;99.90;;;;;;4986649;28;20203;-66
2022/12/01 09:17:30;;;;;;;60.10;27.37;;;5.20;99.90;;;;;;4981643;28;20350;-66
2022/12/01 09:19:57;;;;;;;61.70;29.03;;;5.20;99.90;;;;;;4974821;28;20449;-66
2022/12/01 09:22:23;;;;;;;65.73;28.27;;;5.20;99.90;;;;;;4976518;28;20802;-66
2022/12/01 09:24:50;;;;;;;58.43;29.30;;;5.30;99.90;;;;;;4974789;28;20674;-66
2022/12/01 09:27:18;;;;;;;55.07;28.93;;;5.30;99.90;;;;;;4961676;28;20210;-67
2022/12/01 09:29:45;;;;;;;58.70;28.97;;;5.20;99.90;;;;;;4982902;28;20217;-66
2022/12/01 09:32:12;;;;;;;61.37;28.30;;;5.20;99.90;;;;;;4984557;28;20527;-66
2022/12/01 09:34:39;;;;;;;60.63;28.20;;;5.30;99.90;;;;;;4973694;28;20427;-67
2022/12/01 09:37:06;;;;;;;63.07;28.50;;;5.20;99.90;;;;;;4998689;28;20442;-67
2022/12/01 09:39:33;;;;;;;65.50;29.13;;;5.30;99.90;;;;;;4989474;28;20291;-68
2022/12/01 09:42:04;;;;;;;53.23;27.03;;;5.40;99.90;;;;;;4989249;28;20813;-66
2022/12/01 09:44:40;;;;;;;57.73;26.70;;;5.40;99.90;;;;;;4989666;28;20210;-66
2022/12/01 09:47:17;;;;;;;54.80;26.77;;;5.40;99.90;;;;;;4993517;28;20242;-66
2022/12/01 09:49:53;;;;;;;55.33;26.50;;;5.50;99.90;;;;;;4955730;28;20212;-68
2022/12/01 09:52:21;;;;;;;58.97;27.07;;;5.40;99.90;;;;;;5003155;28;20202;-66
2022/12/01 09:54:49;;;;;;;55.40;28.17;;;5.40;99.90;;;;;;4984905;28;20523;-67
2022/12/01 09:57:30;;;;;;;61.43;28.47;;;5.30;99.90;;;;;;4987804;28;21216;-66
2022/12/01 09:59:59;;;;;;;59.17;28.33;;;5.30;99.90;;;;;;4988912;28;20195;-66
2022/12/01 10:02:33;;;;;;;50.97;25.77;;;5.10;99.90;;;;;;4986814;28;20207;-67
2022/12/01 10:05:04;;;;;;;58.77;26.57;;;5.40;99.90;;;;;;4958803;28;20214;-67
2022/12/01 10:07:35;;;;;;;60.13;28.30;;;5.40;99.90;;;;;;4998358;28;20883;-67
2022/12/01 10:10:05;;;;;;;54.53;25.80;;;5.40;99.90;;;;;;4991229;28;20209;-66
2022/12/01 10:12:35;;;;;;;54.60;24.83;;;5.40;99.90;;;;;;4984247;28;20413;-66
2022/12/01 10:15:15;;;;;;;57.60;27.23;;;5.40;99.90;;;;;;4988366;28;20218;-66
2022/12/01 10:17:54;;;;;;;55.33;26.90;;;5.40;99.90;;;;;;4984703;28;20218;-66
2022/12/01 10:20:27;;;;;;;59.03;27.63;;;5.40;99.90;;;;;;4953263;28;21717;-67
2022/12/01 10:23:14;;;;;;;58.37;25.90;;;5.40;99.90;;;;;;5004382;28;20205;-67
2022/12/01 10:25:49;;;;;;;51.53;26.30;;;5.30;99.90;;;;;;4989314;28;20596;-67
2022/12/01 10:28:40;;;;;;;59.63;26.93;;;5.40;99.90;;;;;;4985770;28;20208;-67
2022/12/01 10:31:18;;;;;;;54.10;26.70;;;5.40;99.90;;;;;;4980041;28;20340;-67
2022/12/01 10:33:54;;;;;;;58.97;28.23;;;5.40;99.90;;;;;;4987166;28;21004;-67
2022/12/01 10:36:21;;;;;;;52.10;26.00;;;5.40;99.90;;;;;;4970344;28;20207;-67
2022/12/01 10:38:48;;;;;;;58.60;27.13;;;5.50;99.90;;;;;;5006140;28;20223;-66
2022/12/01 10:41:18;;;;;;;59.20;27.00;;;5.40;99.90;;;;;;4988608;28;20847;-66
2022/12/01 10:43:49;;;;;;;58.27;27.53;;;5.40;99.90;;;;;;4976829;28;21338;-66
2022/12/01 10:46:29;;;;;;;60.13;27.47;;;5.40;99.90;;;;;;4984546;28;20695;-66
2022/12/01 10:48:57;;;;;;;54.73;27.27;;;5.30;99.90;;;;;;5001103;28;20199;-66
2022/12/01 10:51:26;;;;;;;50.23;25.80;;;5.30;99.90;;;;;;4966128;28;20210;-67
2022/12/01 10:53:58;;;;;;;59.10;26.07;;;5.30;99.90;;;;;;4998215;28;20209;-66
2022/12/01 10:56:26;;;;;;;62.77;28.40;;;5.30;99.90;;;;;;5001843;28;20266;-67
2022/12/01 10:58:56;;;;;;;60.40;26.73;;;5.30;99.90;;;;;;4962421;28;20464;-67
2022/12/01 11:01:26;;;;;;;58.13;27.73;;;5.30;99.90;;;;;;4983273;28;20200;-67
2022/12/01 11:03:56;;;;;;;56.57;27.03;;;5.30;99.90;;;;;;4987911;28;20210;-66
2022/12/01 11:06:26;;;;;;;57.23;24.87;;;5.30;99.90;;;;;;4974348;28;20303;-66
2022/12/01 11:08:57;;;;;;;65.73;28.80;;;5.40;99.90;;;;;;5001634;28;20196;-66
2022/12/01 11:11:27;;;;;;;64.53;27.30;;;5.40;99.90;;;;;;5006239;28;21799;-67
2022/12/01 11:13:55;;;;;;;59.27;26.63;;;5.40;99.90;;;;;;4978497;28;20203;-67
2022/12/01 11:16:38;;;;;;;57.23;26.40;;;5.30;99.90;;;;;;4997014;28;20210;-67
2022/12/01 11:19:27;;;;;;;57.53;26.67;;;5.30;99.90;;;;;;4994007;28;20806;-66
2022/12/01 11:21:56;;;;;;;56.97;26.47;;;5.40;99.90;;;;;;4974263;28;20771;-66
2022/12/01 11:24:39;;;;;;;55.50;28.60;;;5.40;99.90;;;;;;5007094;28;20225;-67
2022/12/01 11:27:15;;;;;;;58.90;27.07;;;5.30;99.90;;;;;;5008730;28;20211;-68
2022/12/01 11:29:42;;;;;;;66.60;27.13;;;5.30;99.90;;;;;;4988657;28;20563;-67
2022/12/01 11:32:18;;;;;;;51.43;25.40;;;5.30;99.90;;;;;;4989389;28;20731;-66
2022/12/01 11:34:54;;;;;;;60.20;25.93;;;5.30;99.90;;;;;;4992566;28;20217;-66
2022/12/01 11:37:24;;;;;;;53.50;25.50;;;5.40;99.90;;;;;;4974351;28;20214;-66
2022/12/01 11:39:52;;;;;;;53.03;26.30;;;5.40;99.90;;;;;;5002789;28;20743;-66
2022/12/01 11:42:24;;;;;;;59.57;26.03;;;5.30;99.90;;;;;;5007214;28;20214;-67
2022/12/01 11:44:55;;;;;;;61.87;26.53;;;5.20;99.90;;;;;;4993411;28;20237;-67
2022/12/01 11:47:25;;;;;;;60.33;25.77;;;5.30;99.90;;;;;;4988457;28;20241;-67
2022/12/01 11:49:55;;;;;;;57.83;25.87;;;5.40;99.90;;;;;;4993910;28;20229;-66
2022/12/01 11:52:28;;;;;;;54.63;26.60;;;5.50;99.90;;;;;;4974276;28;20210;-66
2022/12/01 11:55:01;;;;;;;55.97;25.97;;;5.40;99.90;;;;;;5000416;28;20199;-66
2022/12/01 11:57:30;;;;;;;52.17;25.67;;;5.30;99.90;;;;;;5004259;28;20939;-67
2022/12/01 11:59:57;;;;;;;69.03;27.93;;;5.40;99.90;;;;;;5000569;28;20208;-67
2022/12/01 12:02:32;;;;;;;58.37;27.70;;;5.40;99.90;;;;;;4972446;28;20603;-66
2022/12/01 12:05:16;;;;;;;59.03;25.23;;;5.40;99.90;;;;;;4996317;28;20221;-66
2022/12/01 12:07:53;;;;;;;61.33;27.00;;;5.50;99.90;;;;;;4963851;28;20278;-66
2022/12/01 12:10:31;;;;;;;57.73;27.03;;;5.50;99.90;;;;;;4985388;28;20224;-65
2022/12/01 12:13:17;;;;;;;55.63;26.90;;;5.50;99.90;;;;;;4998584;28;20221;-66
2022/12/01 12:15:52;;;;;;;52.10;24.60;;;5.60;99.90;;;;;;4984738;28;20715;-65
2022/12/01 12:18:42;;;;;;;56.87;26.10;;;5.60;99.90;;;;;;4985645;28;20223;-66
2022/12/01 12:21:20;;;;;;;51.40;24.80;;;5.70;99.90;;;;;;5003882;28;20200;-66
2022/12/01 12:24:15;;;;;;;56.93;25.67;;;5.70;99.90;;;;;;4987367;28;20200;-66
2022/12/01 12:26:49;;;;;;;55.77;26.07;;;5.60;99.90;;;;;;5001217;28;20223;-66
2022/12/01 12:29:36;;;;;;;53.33;25.97;;;5.70;99.90;;;;;;5008670;28;20604;-66
2022/12/01 12:32:17;;;;;;;55.70;25.63;;;5.80;99.90;;;;;;5002466;23;20718;-66
2022/12/01 12:34:52;;;;;;;51.00;24.83;;;5.80;99.90;;;;;;4959126;28;20229;-66
2022/12/01 12:37:26;;;;;;;52.40;26.43;;;5.70;99.90;;;;;;4978061;28;20232;-66
2022/12/01 12:40:36;;;;;;;52.90;24.83;;;5.70;99.90;;;;;;5000278;28;20204;-66
2022/12/01 12:43:18;;;;;;;50.80;24.43;;;5.70;99.90;;;;;;5005804;28;20236;-66
2022/12/01 12:46:07;;;;;;;56.33;25.77;;;5.70;99.90;;;;;;4991178;28;20486;-66
2022/12/01 12:49:09;;;;;;;54.03;25.67;;;5.70;99.90;;;;;;4981259;28;20232;-66
2022/12/01 12:51:42;;;;;;;56.20;24.47;;;5.60;99.90;;;;;;4990212;28;20220;-66
2022/12/01 12:54:20;;;;;;;59.47;25.77;;;5.60;99.90;;;;;;4984072;28;20259;-66
2022/12/01 12:56:51;;;;;;;58.80;26.63;;;5.60;99.90;;;;;;5004284;28;20194;-66
2022/12/01 12:59:22;;;;;;;53.97;25.87;;;5.60;99.90;;;;;;4993717;28;20233;-66